Time;durP1;ratioP1;P1;durP2;ratioP2;P2;SDS_P1;SDS_P2;PMS_P1;PMS_P2;Temp;Humidity;BMP_temperature;BMP_pressure;BME280_temperature;BME280_humidity;BME280_pressure;Samples;Min_cycle;Max_cycle;Signal;HPM_P1;HPM_P2
2022/06/13 00:01:42;;;;;;;12.38;5.88;;;;;;;18.46;46.99;101941.88;5033052;28;20064;-67
2022/06/13 00:04:09;;;;;;;11.38;5.82;;;;;;;18.40;47.28;101938.69;5032622;28;20557;-67
2022/06/13 00:06:36;;;;;;;11.50;5.72;;;;;;;18.35;47.42;101940.94;5032216;28;20507;-67
2022/06/13 00:09:05;;;;;;;9.30;5.55;;;;;;;18.33;47.67;101934.78;5031487;28;20044;-66
2022/06/13 00:11:32;;;;;;;11.63;5.95;;;;;;;18.32;47.70;101941.22;5031773;28;20065;-66
2022/06/13 00:13:59;;;;;;;8.73;5.88;;;;;;;18.32;47.78;101935.78;5033489;28;20132;-66
2022/06/13 00:16:26;;;;;;;9.40;5.70;;;;;;;18.29;47.89;101930.59;5034154;28;20041;-66
2022/06/13 00:18:53;;;;;;;11.07;5.60;;;;;;;18.25;48.04;101934.59;5032030;28;20102;-67
2022/06/13 00:21:29;;;;;;;12.50;6.18;;;;;;;18.23;48.35;101931.13;5021883;28;20053;-66
2022/06/13 00:24:03;;;;;;;8.20;5.18;;;;;;;18.22;48.32;101925.81;5033294;28;20450;-66
2022/06/13 00:26:32;;;;;;;9.80;5.82;;;;;;;18.20;47.94;101925.09;5029967;28;20067;-66
2022/06/13 00:29:00;;;;;;;8.98;5.80;;;;;;;18.16;48.11;101920.91;5035524;28;20049;-66
2022/06/13 00:31:27;;;;;;;11.15;6.63;;;;;;;18.15;47.97;101914.63;5036264;28;20044;-66
2022/06/13 00:33:55;;;;;;;11.07;6.47;;;;;;;18.14;48.43;101918.34;5031393;28;20049;-66
2022/06/13 00:36:23;;;;;;;12.52;5.82;;;;;;;18.14;48.30;101915.63;5032496;28;20060;-66
2022/06/13 00:38:51;;;;;;;10.40;5.43;;;;;;;18.14;48.34;101918.34;5032465;28;20037;-66
2022/06/13 00:41:26;;;;;;;10.18;5.82;;;;;;;18.10;48.73;101919.59;5031211;28;20573;-66
2022/06/13 00:43:54;;;;;;;13.38;6.45;;;;;;;18.07;48.34;101917.13;5032220;28;20046;-66
2022/06/13 00:46:21;;;;;;;12.15;5.78;;;;;;;18.05;48.79;101921.84;5032047;28;20083;-66
2022/06/13 00:48:54;;;;;;;8.90;5.40;;;;;;;18.01;48.97;101915.81;5031056;28;20050;-66
2022/06/13 00:51:21;;;;;;;14.85;5.55;;;;;;;17.98;48.86;101912.47;5032111;28;20553;-66
2022/06/13 00:53:48;;;;;;;11.68;6.25;;;;;;;17.93;49.02;101910.16;5038962;28;20136;-67
2022/06/13 00:56:18;;;;;;;9.50;5.95;;;;;;;17.90;48.84;101899.56;5032537;28;20073;-66
2022/06/13 00:58:58;;;;;;;10.88;6.38;;;;;;;17.86;49.06;101898.09;5033033;28;20041;-66
2022/06/13 01:01:25;;;;;;;11.98;5.72;;;;;;;17.84;49.27;101900.06;5017868;28;20069;-65
2022/06/13 01:03:53;;;;;;;8.68;5.80;;;;;;;17.82;49.16;101903.88;5033799;28;20068;-66
2022/06/13 01:06:21;;;;;;;10.82;5.95;;;;;;;17.83;49.02;101908.31;5032543;28;20041;-66
2022/06/13 01:08:47;;;;;;;12.68;6.60;;;;;;;17.82;49.17;101906.59;5035544;28;20041;-66
2022/06/13 01:11:20;;;;;;;10.65;6.88;;;;;;;17.80;49.45;101904.00;5035886;28;20068;-66
2022/06/13 01:14:27;;;;;;;10.77;6.07;;;;;;;17.76;49.76;101903.41;5035906;28;20037;-66
2022/06/13 01:17:49;;;;;;;17.88;6.80;;;;;;;17.74;50.07;101904.53;5026739;28;20084;-66
2022/06/13 01:20:39;;;;;;;9.95;6.47;;;;;;;17.72;49.47;101901.09;5033045;28;20136;-66
2022/06/13 01:23:54;;;;;;;10.63;6.50;;;;;;;17.64;49.88;101896.25;5037571;28;20384;-67
2022/06/13 01:26:52;;;;;;;10.93;6.97;;;;;;;17.60;50.27;101889.38;5011457;28;20495;-66
2022/06/13 01:29:56;;;;;;;10.43;6.63;;;;;;;17.58;50.26;101894.06;5048086;28;20128;-65
2022/06/13 01:32:32;;;;;;;12.57;7.57;;;;;;;17.60;50.53;101899.38;5058536;28;20393;-66
2022/06/13 01:35:28;;;;;;;10.85;7.45;;;;;;;17.60;50.83;101899.38;5035280;28;20303;-68
2022/06/13 01:38:16;;;;;;;14.13;7.95;;;;;;;17.67;50.66;101898.75;5028961;28;20053;-65
2022/06/13 01:40:51;;;;;;;16.42;8.07;;;;;;;17.71;50.74;101900.22;5039163;28;20037;-66
2022/06/13 01:43:24;;;;;;;10.90;7.38;;;;;;;17.78;51.31;101897.84;5034327;28;20464;-65
2022/06/13 01:46:10;;;;;;;13.23;7.13;;;;;;;17.82;51.25;101901.16;5035852;28;20056;-67
2022/06/13 01:48:51;;;;;;;15.23;7.78;;;;;;;17.87;51.25;101901.66;5034350;28;20120;-67
2022/06/13 01:51:26;;;;;;;14.60;7.90;;;;;;;17.92;51.30;101891.25;5035120;28;20393;-67
2022/06/13 01:53:52;;;;;;;14.20;7.60;;;;;;;17.93;51.45;101890.28;5044229;28;20542;-67
2022/06/13 01:56:26;;;;;;;13.50;7.72;;;;;;;17.95;51.59;101891.00;5033409;28;20497;-66
2022/06/13 01:59:12;;;;;;;14.10;7.75;;;;;;;17.98;52.10;101883.44;5035632;28;20507;-66
2022/06/13 02:01:49;;;;;;;13.55;7.60;;;;;;;18.05;51.79;101886.50;5034580;28;20423;-66
2022/06/13 02:04:27;;;;;;;13.10;7.45;;;;;;;18.06;51.66;101886.38;5035911;28;20052;-66
2022/06/13 02:07:03;;;;;;;12.48;7.20;;;;;;;18.08;51.98;101887.09;5035182;28;20053;-66
2022/06/13 02:09:33;;;;;;;;;;;;;;;18.10;51.47;101881.53;5032646;28;20116;-66
2022/06/13 02:12:00;;;;;;;11.48;7.35;;;;;;;18.17;51.63;101884.56;5030468;28;19928;-66
2022/06/13 02:14:45;;;;;;;13.07;7.78;;;;;;;18.20;51.60;101885.16;5018544;28;20061;-66
2022/06/13 02:17:18;;;;;;;13.77;7.15;;;;;;;18.23;51.66;101890.34;5020461;28;20046;-66
2022/06/13 02:20:04;;;;;;;10.05;6.88;;;;;;;18.23;52.19;101895.78;5028782;28;20091;-66
2022/06/13 02:22:45;;;;;;;12.13;7.45;;;;;;;18.26;52.11;101900.09;5034938;28;20072;-66
2022/06/13 02:25:23;;;;;;;12.93;7.15;;;;;;;18.29;52.02;101902.53;5017895;28;20504;-67
2022/06/13 02:28:01;;;;;;;11.20;6.63;;;;;;;18.33;52.34;101899.44;5020656;28;20411;-67
2022/06/13 02:30:39;;;;;;;13.23;6.85;;;;;;;18.35;52.37;101900.16;5027038;28;20456;-67
2022/06/13 02:33:14;;;;;;;12.90;7.55;;;;;;;18.39;52.23;101895.31;5032725;28;20060;-67
2022/06/13 02:36:04;;;;;;;9.98;6.55;;;;;;;18.41;52.50;101894.19;5034001;28;20423;-68
2022/06/13 02:38:51;;;;;;;9.93;6.70;;;;;;;18.45;52.33;101883.88;5035196;28;20483;-67
2022/06/13 02:41:22;;;;;;;14.30;7.10;;;;;;;18.47;52.24;101876.47;5033900;28;20571;-67
2022/06/13 02:43:56;;;;;;;15.77;6.45;;;;;;;18.49;52.48;101873.59;5033667;28;20391;-67
2022/06/13 02:46:28;;;;;;;12.40;6.32;;;;;;;18.46;51.71;101855.69;5033463;28;20495;-67
2022/06/13 02:49:06;;;;;;;14.60;8.02;;;;;;;18.45;52.14;101861.28;5033729;28;20030;-67
2022/06/13 02:51:51;;;;;;;12.80;6.72;;;;;;;18.45;52.49;101873.00;5033380;28;20055;-67
2022/06/13 02:54:26;;;;;;;10.70;6.90;;;;;;;18.49;52.44;101881.75;5033936;28;20404;-67
2022/06/13 02:57:23;;;;;;;15.10;7.00;;;;;;;18.54;52.34;101883.06;5033804;28;20420;-68
2022/06/13 03:00:08;;;;;;;12.32;7.15;;;;;;;18.58;52.54;101873.69;5033375;28;20380;-67
2022/06/13 03:02:53;;;;;;;12.33;6.60;;;;;;;18.60;52.57;101878.97;5033476;28;20391;-66
2022/06/13 03:05:25;;;;;;;10.52;7.78;;;;;;;18.64;52.45;101872.31;5033075;28;20038;-66
2022/06/13 03:07:59;;;;;;;12.23;5.90;;;;;;;18.66;52.67;101870.31;5042380;28;20045;-67
2022/06/13 03:10:38;;;;;;;13.68;6.68;;;;;;;18.68;52.46;101873.75;5032854;28;20470;-67
2022/06/13 03:13:33;;;;;;;15.55;6.20;;;;;;;18.66;52.75;101871.16;5032097;28;20057;-67
2022/06/13 03:16:07;;;;;;;12.50;6.10;;;;;;;18.64;52.73;101866.88;5032551;28;20136;-67
2022/06/13 03:18:44;;;;;;;9.70;6.07;;;;;;;18.66;52.65;101873.03;5048135;28;20478;-67
2022/06/13 03:21:20;;;;;;;13.65;6.28;;;;;;;18.66;52.36;101868.44;5032926;28;20038;-67
2022/06/13 03:23:59;;;;;;;13.20;6.32;;;;;;;18.69;52.84;101878.19;5034534;28;20049;-67
2022/06/13 03:26:33;;;;;;;13.48;6.43;;;;;;;18.70;52.64;101875.34;5034485;28;20038;-67
2022/06/13 03:29:13;;;;;;;11.80;6.60;;;;;;;18.71;52.86;101868.03;5034656;28;20041;-68
2022/06/13 03:31:52;;;;;;;12.40;6.60;;;;;;;18.71;52.68;101873.47;5034253;28;20038;-68
2022/06/13 03:34:24;;;;;;;12.45;6.68;;;;;;;18.73;52.55;101874.22;5034678;28;20522;-68
2022/06/13 03:37:10;;;;;;;15.80;7.18;;;;;;;18.73;52.88;101877.78;5038422;28;20190;-66
2022/06/13 03:39:53;;;;;;;12.95;6.85;;;;;;;18.72;52.99;101886.94;5029446;28;20034;-67
2022/06/13 03:42:29;;;;;;;12.35;6.93;;;;;;;18.72;52.87;101888.81;5034608;28;20121;-67
2022/06/13 03:45:04;;;;;;;14.10;7.50;;;;;;;18.71;52.50;101882.50;5033340;28;20042;-66
2022/06/13 03:47:40;;;;;;;14.60;7.63;;;;;;;18.70;53.01;101883.50;5033326;28;20041;-66
2022/06/13 03:50:07;;;;;;;15.30;7.07;;;;;;;18.71;52.70;101892.53;5032648;28;20041;-67
2022/06/13 03:52:42;;;;;;;13.07;7.10;;;;;;;18.70;52.55;101896.25;5037305;28;20055;-66
2022/06/13 03:55:23;;;;;;;15.63;7.75;;;;;;;18.69;52.64;101897.25;5038967;28;20133;-66
2022/06/13 03:58:24;;;;;;;15.88;8.23;;;;;;;18.68;52.88;101898.25;5032377;28;20487;-67
2022/06/13 04:01:03;;;;;;;13.70;7.68;;;;;;;18.68;53.09;101888.22;5031929;28;20057;-66
2022/06/13 04:03:29;;;;;;;16.38;8.15;;;;;;;18.67;52.62;101886.50;5032437;28;20076;-66
2022/06/13 04:05:58;;;;;;;14.57;7.40;;;;;;;18.69;53.18;101897.25;5031738;28;20037;-66
2022/06/13 04:08:27;;;;;;;14.70;7.72;;;;;;;18.66;52.93;101898.38;5030622;28;20041;-66
2022/06/13 04:11:23;;;;;;;13.85;7.25;;;;;;;18.66;53.24;101897.53;5031840;28;20129;-67
2022/06/13 04:14:05;;;;;;;19.77;7.93;;;;;;;18.67;53.13;101897.38;5033442;28;20065;-67
2022/06/13 04:17:13;;;;;;;14.75;8.23;;;;;;;18.68;53.30;101903.69;5033705;28;20077;-67
2022/06/13 04:19:59;;;;;;;14.55;7.35;;;;;;;18.70;53.41;101901.69;5011401;28;20038;-68
2022/06/13 04:22:48;;;;;;;11.90;7.28;;;;;;;18.69;53.23;101914.44;5028191;28;20045;-67
2022/06/13 04:25:41;;;;;;;17.77;7.80;;;;;;;18.69;53.29;101919.00;5023332;28;20064;-67
2022/06/13 04:28:22;;;;;;;16.10;8.70;;;;;;;18.66;53.43;101913.84;5034817;28;20499;-67
2022/06/13 04:30:52;;;;;;;16.38;8.20;;;;;;;18.66;53.42;101916.56;5037208;28;20045;-67
2022/06/13 04:33:40;;;;;;;13.68;8.25;;;;;;;18.64;53.47;101927.59;5032486;28;20090;-67
2022/06/13 04:36:11;;;;;;;17.77;8.38;;;;;;;18.66;53.15;101928.31;5032902;28;20037;-67
2022/06/13 04:38:45;;;;;;;16.02;9.25;;;;;;;18.67;53.48;101927.31;5032270;28;20136;-67
2022/06/13 04:41:14;;;;;;;17.85;9.27;;;;;;;18.69;53.68;101929.91;5033449;28;20080;-67
2022/06/13 04:43:46;;;;;;;19.08;9.65;;;;;;;18.71;53.32;101941.50;5031484;28;20084;-67
2022/06/13 04:46:17;;;;;;;16.50;9.70;;;;;;;18.72;53.57;101935.94;5030856;28;20081;-67
2022/06/13 04:48:47;;;;;;;13.93;8.57;;;;;;;18.75;53.80;101933.94;5043283;28;20049;-68
2022/06/13 04:51:22;;;;;;;13.57;9.40;;;;;;;18.77;53.68;101943.69;5031644;28;20033;-67
2022/06/13 04:53:59;;;;;;;16.27;9.82;;;;;;;18.79;53.69;101936.25;5031705;28;20041;-68
2022/06/13 04:56:27;;;;;;;17.35;9.73;;;;;;;18.82;54.05;101938.69;5031911;28;20050;-67
2022/06/13 04:58:55;;;;;;;18.25;10.13;;;;;;;18.87;54.00;101941.88;5030679;28;20044;-68
2022/06/13 05:01:41;;;;;;;18.13;10.20;;;;;;;18.89;54.11;101929.00;5030664;28;20447;-67
2022/06/13 05:04:13;;;;;;;19.25;9.70;;;;;;;18.90;53.98;101930.72;5031536;28;20041;-67
2022/06/13 05:06:44;;;;;;;17.52;9.65;;;;;;;18.92;53.76;101934.16;5031866;28;20052;-67
2022/06/13 05:09:11;;;;;;;15.10;9.27;;;;;;;18.95;54.01;101931.16;5031608;28;20053;-67
2022/06/13 05:11:44;;;;;;;19.83;10.75;;;;;;;19.00;54.27;101933.47;5032469;28;20125;-68
2022/06/13 05:14:16;;;;;;;19.00;9.85;;;;;;;19.03;54.34;101931.34;5035112;28;20076;-67
2022/06/13 05:17:05;;;;;;;19.63;10.27;;;;;;;19.10;54.19;101941.69;5031636;28;20037;-67
2022/06/13 05:19:38;;;;;;;18.52;11.38;;;;;;;19.17;54.35;101943.72;5031383;28;20149;-67
2022/06/13 05:22:32;;;;;;;24.90;10.82;;;;;;;19.22;54.64;101946.03;5031731;28;20044;-66
2022/06/13 05:25:09;;;;;;;25.58;11.18;;;;;;;19.26;54.11;101945.59;5012151;28;20076;-67
2022/06/13 05:27:36;;;;;;;19.65;11.30;;;;;;;19.29;54.37;101955.38;5012360;28;20080;-67
2022/06/13 05:30:03;;;;;;;21.05;10.98;;;;;;;19.31;54.10;101958.81;5042701;28;20030;-67
2022/06/13 05:32:33;;;;;;;21.73;11.45;;;;;;;19.33;54.13;101959.56;5031803;28;20041;-68
2022/06/13 05:35:01;;;;;;;21.48;12.07;;;;;;;19.35;54.41;101955.69;5030647;28;20072;-67
2022/06/13 05:37:28;;;;;;;19.80;11.18;;;;;;;19.39;54.25;101959.00;5023092;28;20054;-67
2022/06/13 05:39:54;;;;;;;22.70;10.43;;;;;;;19.45;54.91;101953.00;5024711;28;20048;-67
2022/06/13 05:42:27;;;;;;;19.88;10.32;;;;;;;19.50;54.68;101961.63;5030961;28;20076;-67
2022/06/13 05:44:53;;;;;;;21.00;10.25;;;;;;;19.55;54.98;101959.38;5031969;28;20048;-67
2022/06/13 05:47:20;;;;;;;17.35;10.85;;;;;;;19.60;54.72;101967.13;5031048;28;20042;-67
2022/06/13 05:49:47;;;;;;;21.33;11.50;;;;;;;19.64;54.73;101963.13;5027567;28;20079;-67
2022/06/13 05:52:18;;;;;;;19.75;11.05;;;;;;;19.69;55.12;101963.56;5027215;28;20112;-68
2022/06/13 05:54:44;;;;;;;20.48;10.20;;;;;;;19.77;54.66;101965.56;5026184;28;20041;-67
2022/06/13 05:57:11;;;;;;;21.27;9.57;;;;;;;19.81;54.47;101964.28;5024807;28;20060;-67
2022/06/13 05:59:38;;;;;;;21.45;8.80;;;;;;;19.88;54.70;101968.16;5034155;28;20491;-68
2022/06/13 06:02:13;;;;;;;17.80;7.93;;;;;;;19.92;54.89;101970.47;5034465;28;20112;-68
2022/06/13 06:04:40;;;;;;;21.48;9.85;;;;;;;20.00;54.23;101976.06;5018169;28;20046;-67
2022/06/13 06:07:08;;;;;;;19.95;9.50;;;;;;;20.09;54.52;101971.66;5032037;28;20042;-67
2022/06/13 06:09:34;;;;;;;18.38;8.02;;;;;;;20.17;54.16;101984.56;5036330;28;20112;-67
2022/06/13 06:12:14;;;;;;;17.48;8.43;;;;;;;20.25;54.07;101987.44;5035915;28;20065;-67
2022/06/13 06:14:40;;;;;;;18.23;7.88;;;;;;;20.30;54.09;101991.44;5037083;28;20033;-67
2022/06/13 06:17:07;;;;;;;15.50;8.52;;;;;;;20.37;53.56;101994.47;5023984;28;20046;-67
2022/06/13 06:19:34;;;;;;;17.75;8.95;;;;;;;20.43;53.70;102001.25;5046905;28;20116;-67
2022/06/13 06:22:00;;;;;;;16.85;8.10;;;;;;;20.50;53.57;102000.50;5028953;28;20033;-67
2022/06/13 06:24:34;;;;;;;16.30;8.82;;;;;;;20.56;53.67;102004.53;5030450;28;20045;-68
2022/06/13 06:27:01;;;;;;;16.75;8.45;;;;;;;20.61;53.27;102000.34;5030413;28;20125;-66
2022/06/13 06:29:28;;;;;;;22.02;9.65;;;;;;;20.67;53.22;101993.44;5020013;28;20045;-67
2022/06/13 06:31:55;;;;;;;15.63;8.18;;;;;;;20.74;52.97;101994.56;5033452;28;20061;-67
2022/06/13 06:34:21;;;;;;;15.40;8.20;;;;;;;20.80;53.31;102015.81;5041601;28;20433;-67
2022/06/13 06:36:48;;;;;;;17.17;8.77;;;;;;;20.85;53.23;102015.41;5048668;28;20136;-67
2022/06/13 06:39:14;;;;;;;19.38;8.95;;;;;;;20.96;53.14;102008.91;5037629;28;20045;-67
2022/06/13 06:41:42;;;;;;;17.35;8.77;;;;;;;21.04;52.99;102014.50;5033271;28;20119;-67
2022/06/13 06:44:10;;;;;;;20.50;8.85;;;;;;;21.16;52.76;102013.31;5035636;28;20116;-67
2022/06/13 06:46:37;;;;;;;16.08;6.93;;;;;;;21.23;52.53;102022.66;5035393;28;20057;-67
2022/06/13 06:49:03;;;;;;;16.27;7.00;;;;;;;21.26;52.05;102022.34;5038941;28;20514;-67
2022/06/13 06:51:30;;;;;;;9.60;5.15;;;;;;;21.28;51.55;102024.94;5035392;28;20390;-68
2022/06/13 07:02:15;;;;;;;11.18;4.65;;;;;;;21.22;50.12;102029.09;5037637;28;20041;-68
2022/06/13 07:04:42;;;;;;;12.38;5.25;;;;;;;21.18;49.93;102031.28;5033399;28;20057;-68
2022/06/13 07:07:08;;;;;;;17.02;4.85;;;;;;;21.13;49.65;102036.31;5035103;28;20029;-68
2022/06/13 07:09:35;;;;;;;9.55;3.90;;;;;;;21.11;49.46;102037.47;5033411;28;20372;-68
2022/06/13 07:12:10;;;;;;;10.80;4.13;;;;;;;21.11;49.04;102034.75;5032936;28;20072;-69
2022/06/13 07:14:37;;;;;;;13.13;4.60;;;;;;;21.13;48.79;102030.84;5031443;28;20046;-65
2022/06/13 07:17:06;;;;;;;10.60;4.40;;;;;;;21.19;48.87;102029.41;5034293;28;20083;-67
2022/06/13 07:19:33;;;;;;;10.70;3.65;;;;;;;21.24;48.58;102035.31;5032689;28;20037;-65
2022/06/13 07:22:17;;;;;;;10.48;4.35;;;;;;;21.33;48.54;102045.34;5036599;28;20041;-65
2022/06/13 07:24:44;;;;;;;8.15;3.72;;;;;;;21.44;48.36;102036.09;5033436;28;20065;-65
2022/06/13 07:27:14;;;;;;;9.82;3.30;;;;;;;21.53;48.17;102041.50;5032866;28;20132;-65
2022/06/13 07:29:42;;;;;;;6.30;3.35;;;;;;;21.63;47.81;102037.91;5032257;28;20733;-65
2022/06/13 07:32:23;;;;;;;9.35;2.70;;;;;;;21.79;47.49;102044.41;5032693;28;20045;-66
2022/06/13 07:34:52;;;;;;;7.35;3.20;;;;;;;21.94;46.98;102049.38;5034475;28;20069;-68
2022/06/13 07:40:09;;;;;;;7.55;2.75;;;;;;;22.24;46.47;102043.56;5048598;28;20050;-69
2022/06/13 07:42:47;;;;;;;5.65;1.90;;;;;;;22.40;45.57;102038.28;5031927;28;20069;-69
2022/06/13 07:45:22;;;;;;;5.38;2.10;;;;;;;22.50;45.46;102049.13;5031758;28;20048;-69
2022/06/13 07:48:08;;;;;;;7.05;2.13;;;;;;;22.61;45.14;102045.28;5032082;28;20053;-69
2022/06/13 07:50:35;;;;;;;6.57;2.28;;;;;;;22.77;44.55;102050.91;5031791;28;20034;-69
2022/06/13 07:53:06;;;;;;;6.80;2.28;;;;;;;22.85;44.28;102053.72;5032039;28;20042;-68
2022/06/13 07:55:33;;;;;;;6.03;1.90;;;;;;;22.93;43.94;102056.53;5017925;28;20141;-69
2022/06/13 07:58:00;;;;;;;5.85;2.20;;;;;;;23.00;43.56;102049.38;5032161;28;20080;-69
2022/06/13 08:00:31;;;;;;;5.13;2.35;;;;;;;23.10;43.52;102054.78;5031884;28;20037;-69
2022/06/13 08:03:03;;;;;;;9.93;2.28;;;;;;;23.13;42.87;102059.94;5031691;28;20061;-69
2022/06/13 08:05:31;;;;;;;7.05;2.15;;;;;;;23.17;43.03;102066.81;5031255;28;20103;-69
2022/06/13 08:07:57;;;;;;;7.22;1.90;;;;;;;23.25;42.61;102071.50;5047028;28;20043;-69
2022/06/13 08:10:24;;;;;;;7.93;2.40;;;;;;;23.37;42.71;102076.53;5032449;28;20043;-69
2022/06/13 08:12:53;;;;;;;4.20;1.70;;;;;;;23.53;42.83;102073.03;5047229;28;20046;-69
2022/06/13 08:15:22;;;;;;;6.18;1.90;;;;;;;23.66;42.37;102083.56;5031562;28;20406;-69
2022/06/13 08:17:49;;;;;;;7.20;1.90;;;;;;;23.75;42.36;102088.91;5031809;28;20466;-69
2022/06/13 08:20:15;;;;;;;7.75;2.00;;;;;;;23.86;42.03;102087.78;5031195;28;20116;-69
2022/06/13 08:22:46;;;;;;;5.97;2.10;;;;;;;23.93;41.52;102079.75;5030691;28;20046;-69
2022/06/13 08:25:26;;;;;;;6.07;2.25;;;;;;;23.93;41.32;102083.38;5031647;28;20041;-69
2022/06/13 08:27:55;;;;;;;5.88;1.90;;;;;;;23.89;41.17;102092.94;5031020;28;20041;-69
2022/06/13 08:30:21;;;;;;;4.90;2.05;;;;;;;23.86;40.85;102092.44;5031261;28;20041;-69
2022/06/13 08:32:50;;;;;;;5.38;1.80;;;;;;;23.87;40.99;102092.25;5031229;28;20399;-69
2022/06/13 08:35:17;;;;;;;5.90;2.00;;;;;;;23.95;40.90;102086.78;5030874;28;20045;-70
2022/06/13 08:37:43;;;;;;;10.55;2.80;;;;;;;24.08;40.97;102091.81;5029898;28;20136;-69
2022/06/13 08:40:11;;;;;;;4.32;2.38;;;;;;;24.15;40.81;102092.00;5029871;28;20046;-69
2022/06/13 08:43:02;;;;;;;5.55;2.40;;;;;;;24.23;40.59;102098.38;5030969;28;20063;-69
2022/06/13 08:45:37;;;;;;;8.77;1.88;;;;;;;24.36;40.68;102090.53;5030965;28;20108;-69
2022/06/13 08:48:12;;;;;;;6.65;2.13;;;;;;;24.48;40.28;102092.94;5031041;28;20135;-69
2022/06/13 08:50:53;;;;;;;;;;;;;;;24.50;40.58;102099.13;5031558;28;20042;-69
2022/06/13 08:53:30;;;;;;;6.47;2.00;;;;;;;24.56;40.31;102106.72;5030892;28;19920;-69
2022/06/13 08:56:06;;;;;;;5.47;1.70;;;;;;;24.52;39.97;102105.31;5030974;28;20132;-69
2022/06/13 08:58:41;;;;;;;4.00;1.63;;;;;;;24.46;39.49;102104.09;5030973;28;20136;-69
2022/06/13 09:01:14;;;;;;;9.40;2.03;;;;;;;24.36;39.39;102108.91;5017828;28;20108;-69
2022/06/13 09:03:50;;;;;;;6.30;2.10;;;;;;;24.31;39.72;102111.28;5030804;28;20339;-69
2022/06/13 09:06:26;;;;;;;9.65;2.60;;;;;;;24.34;40.08;102114.56;5018032;28;20092;-69
2022/06/13 09:09:22;;;;;;;7.00;2.20;;;;;;;24.39;39.67;102119.53;5030771;28;20075;-69
2022/06/13 09:12:30;;;;;;;4.80;1.25;;;;;;;24.36;39.33;102117.13;5030654;28;20041;-70
2022/06/13 09:15:15;;;;;;;2.90;1.27;;;;;;;24.38;39.13;102118.69;5030690;28;20061;-69
2022/06/13 09:17:53;;;;;;;6.75;1.33;;;;;;;24.44;38.95;102121.78;5030741;28;20116;-69
2022/06/13 09:20:24;;;;;;;3.47;1.00;;;;;;;24.48;38.72;102120.41;5030796;28;20056;-69
2022/06/13 09:23:12;;;;;;;4.07;1.30;;;;;;;24.50;38.09;102119.22;5030627;28;20029;-69
2022/06/13 09:26:18;;;;;;;3.60;1.20;;;;;;;24.51;37.82;102117.31;5031011;28;20044;-70
2022/06/13 09:29:05;;;;;;;5.72;1.10;;;;;;;24.51;38.01;102122.81;5030448;28;20058;-69
2022/06/13 09:31:41;;;;;;;2.47;0.88;;;;;;;24.59;37.85;102125.63;5030324;28;20124;-69
2022/06/13 09:34:14;;;;;;;2.28;0.88;;;;;;;24.65;37.92;102120.28;5034298;28;20061;-69
2022/06/13 09:36:56;;;;;;;6.60;1.55;;;;;;;24.74;37.21;102123.06;5049771;28;20042;-69
2022/06/13 09:39:23;;;;;;;3.78;1.05;;;;;;;24.77;37.19;102125.47;5034476;28;20033;-69
2022/06/13 09:42:00;;;;;;;4.95;0.80;;;;;;;24.81;36.57;102133.19;5034059;28;20279;-69
2022/06/13 09:44:55;;;;;;;7.47;1.30;;;;;;;24.86;36.43;102143.66;5034242;28;20533;-69
2022/06/13 09:48:01;;;;;;;4.03;0.85;;;;;;;24.91;36.46;102141.25;5032920;28;20049;-69
2022/06/13 09:50:45;;;;;;;4.03;1.00;;;;;;;25.02;36.53;102138.19;5015379;28;20137;-69
2022/06/13 09:53:25;;;;;;;5.30;1.15;;;;;;;25.11;36.63;102139.91;5033775;28;20515;-69
2022/06/13 09:56:08;;;;;;;4.55;1.63;;;;;;;25.13;36.51;102140.59;5033993;28;20061;-69
2022/06/13 09:58:42;;;;;;;2.20;0.95;;;;;;;25.21;35.96;102139.72;5034035;28;20116;-69
2022/06/13 10:01:18;;;;;;;3.22;1.05;;;;;;;25.28;36.27;102144.38;5034318;28;20070;-69
2022/06/13 10:04:12;;;;;;;3.15;1.00;;;;;;;25.38;35.84;102137.84;5033588;28;20081;-69
2022/06/13 10:06:47;;;;;;;4.25;1.20;;;;;;;25.50;35.80;102140.06;5033898;28;20041;-69
2022/06/13 10:09:22;;;;;;;5.07;1.20;;;;;;;25.57;36.02;102142.97;5033648;28;20033;-69
2022/06/13 10:12:26;;;;;;;3.58;0.90;;;;;;;25.50;35.74;102145.56;5048968;28;20043;-69
2022/06/13 10:14:58;;;;;;;5.65;1.13;;;;;;;25.44;35.60;102148.16;5021616;28;20041;-69
2022/06/13 10:17:34;;;;;;;2.42;0.90;;;;;;;25.32;35.70;102148.50;5033552;28;20041;-69
2022/06/13 10:20:03;;;;;;;3.95;0.93;;;;;;;25.20;35.46;102152.63;5033680;28;20333;-69
2022/06/13 10:23:06;;;;;;;3.25;0.80;;;;;;;25.13;35.61;102154.34;5032233;28;20041;-71
2022/06/13 10:26:01;;;;;;;2.80;0.90;;;;;;;25.15;35.55;102138.53;5033442;28;20495;-69
2022/06/13 10:28:31;;;;;;;4.80;1.42;;;;;;;25.27;35.61;102144.56;5031859;28;20069;-69
2022/06/13 10:31:21;;;;;;;7.53;0.90;;;;;;;25.26;35.23;102162.06;5032123;28;20038;-69
2022/06/13 10:34:38;;;;;;;2.53;0.80;;;;;;;25.22;35.22;102156.06;5031758;28;20053;-69
2022/06/13 10:37:19;;;;;;;1.25;0.65;;;;;;;25.30;35.02;102172.56;5023305;28;20041;-69
2022/06/13 10:39:48;;;;;;;3.78;0.90;;;;;;;25.40;35.19;102158.63;5032154;28;20041;-69
2022/06/13 10:42:21;;;;;;;3.63;0.93;;;;;;;25.44;35.08;102161.91;5048593;28;20125;-69
2022/06/13 10:44:48;;;;;;;4.30;1.20;;;;;;;25.46;35.12;102159.81;5032624;28;20046;-69
2022/06/13 10:47:28;;;;;;;3.70;1.27;;;;;;;25.53;35.04;102155.34;5033170;28;20065;-69
2022/06/13 10:50:06;;;;;;;4.25;1.00;;;;;;;25.65;35.09;102160.34;5048480;28;20063;-69
2022/06/13 10:52:43;;;;;;;2.38;1.00;;;;;;;25.75;34.76;102157.38;5031646;28;20403;-69
2022/06/13 10:55:13;;;;;;;4.03;1.20;;;;;;;25.71;34.48;102164.28;5033099;28;20124;-69
2022/06/13 10:57:43;;;;;;;5.55;1.10;;;;;;;25.61;33.95;102166.31;5019036;28;20125;-68
2022/06/13 11:00:24;;;;;;;4.65;1.17;;;;;;;25.55;34.01;102167.03;5032932;28;20514;-69
2022/06/13 11:03:09;;;;;;;4.13;1.08;;;;;;;25.51;34.55;102169.28;5032961;28;20038;-69
2022/06/13 11:05:52;;;;;;;2.88;0.90;;;;;;;25.61;34.40;102172.69;5032558;28;20491;-69
2022/06/13 11:08:18;;;;;;;4.00;0.98;;;;;;;25.67;33.90;102159.28;5033013;28;20084;-69
2022/06/13 11:10:58;;;;;;;3.75;1.10;;;;;;;25.71;33.86;102169.78;5031375;28;20503;-68
2022/06/13 11:13:36;;;;;;;6.15;1.13;;;;;;;25.74;34.29;102160.31;5032761;28;20392;-68
2022/06/13 11:25:23;;;;;;;5.40;1.10;;;;;;;25.58;33.95;102172.19;5032704;28;20470;-69
2022/06/13 11:28:15;;;;;;;4.72;1.20;;;;;;;25.62;33.75;102176.31;5032540;28;20511;-69
2022/06/13 11:30:43;;;;;;;6.72;1.40;;;;;;;25.64;33.88;102164.09;5030772;28;20057;-69
2022/06/13 11:33:09;;;;;;;3.45;1.02;;;;;;;25.73;33.84;102164.94;5031843;28;20144;-69
2022/06/13 11:35:42;;;;;;;6.18;1.10;;;;;;;25.82;33.87;102174.03;5032173;28;20434;-68
2022/06/13 11:38:29;;;;;;;3.90;0.98;;;;;;;25.91;33.52;102167.47;5032187;28;20499;-68
2022/06/13 11:41:01;;;;;;;2.63;1.10;;;;;;;25.98;33.55;102163.81;5032239;28;20049;-69
2022/06/13 11:43:42;;;;;;;5.07;0.80;;;;;;;26.05;33.53;102161.25;5031747;28;20057;-69
2022/06/13 11:46:27;;;;;;;3.92;1.05;;;;;;;26.15;33.57;102163.78;5032399;28;20488;-69
2022/06/13 11:48:56;;;;;;;5.05;1.27;;;;;;;26.31;33.55;102169.22;5031786;28;20541;-69
2022/06/13 11:51:29;;;;;;;3.00;0.90;;;;;;;26.43;33.13;102162.28;5031828;28;20045;-69
2022/06/13 11:53:58;;;;;;;3.33;0.95;;;;;;;26.54;32.70;102166.53;5031619;28;20529;-69
2022/06/13 11:56:29;;;;;;;5.78;1.13;;;;;;;26.63;32.57;102162.69;5022104;28;20046;-69
2022/06/13 11:58:59;;;;;;;4.20;0.90;;;;;;;26.68;32.34;102167.63;5028265;28;20607;-69
2022/06/13 12:01:31;;;;;;;2.80;1.10;;;;;;;26.74;32.37;102169.66;5047036;28;20453;-69
2022/06/13 12:04:02;;;;;;;5.13;0.85;;;;;;;26.82;31.99;102155.84;5031645;28;20037;-69
2022/06/13 12:06:36;;;;;;;5.88;0.70;;;;;;;26.92;31.56;102164.72;5031927;28;20505;-68
2022/06/13 12:09:43;;;;;;;5.78;1.88;;;;;;;27.00;31.61;102167.47;5031388;28;20565;-69
2022/06/13 12:12:14;;;;;;;3.53;1.00;;;;;;;27.21;32.18;102152.97;5030686;28;20503;-70
2022/06/13 12:14:42;;;;;;;3.88;1.02;;;;;;;27.27;32.10;102171.53;5018360;28;20038;-69
2022/06/13 12:17:18;;;;;;;4.70;1.08;;;;;;;27.28;31.92;102178.75;5031406;28;20128;-69
2022/06/13 12:20:02;;;;;;;1.98;1.15;;;;;;;27.24;31.66;102171.91;5031417;28;20033;-69
2022/06/13 12:22:40;;;;;;;2.33;0.93;;;;;;;27.22;31.40;102165.72;5031142;28;20488;-69